sensor_id;sensor_type;location;lat;lon;timestamp;temperature;humidity
43991;DHT22;29654;50.784;20.604;2023-08-12T00:01:47;20.90;48.20
43991;DHT22;29654;50.784;20.604;2023-08-12T00:06:49;20.80;47.90
43991;DHT22;29654;50.784;20.604;2023-08-12T00:11:54;20.80;48.00
43991;DHT22;29654;50.784;20.604;2023-08-12T00:16:56;20.80;48.10
43991;DHT22;29654;50.784;20.604;2023-08-12T00:21:59;20.70;47.90
43991;DHT22;29654;50.784;20.604;2023-08-12T00:27:03;20.70;48.10
43991;DHT22;29654;50.784;20.604;2023-08-12T00:32:07;20.70;48.20
43991;DHT22;29654;50.784;20.604;2023-08-12T00:37:10;20.60;48.00
43991;DHT22;29654;50.784;20.604;2023-08-12T00:42:14;20.50;47.90
43991;DHT22;29654;50.784;20.604;2023-08-12T00:47:18;20.40;48.00
43991;DHT22;29654;50.784;20.604;2023-08-12T00:52:22;20.40;48.00
43991;DHT22;29654;50.784;20.604;2023-08-12T00:57:26;20.30;48.00
43991;DHT22;29654;50.784;20.604;2023-08-12T01:02:29;20.20;48.20
43991;DHT22;29654;50.784;20.604;2023-08-12T01:07:32;20.10;48.10
43991;DHT22;29654;50.784;20.604;2023-08-12T01:12:39;20.00;48.20
43991;DHT22;29654;50.784;20.604;2023-08-12T01:17:46;19.90;48.60
43991;DHT22;29654;50.784;20.604;2023-08-12T01:22:56;19.80;48.40
43991;DHT22;29654;50.784;20.604;2023-08-12T01:28:03;19.70;48.80
43991;DHT22;29654;50.784;20.604;2023-08-12T01:33:09;19.70;48.70
43991;DHT22;29654;50.784;20.604;2023-08-12T01:38:15;19.60;48.80
43991;DHT22;29654;50.784;20.604;2023-08-12T01:43:20;19.50;48.70
43991;DHT22;29654;50.784;20.604;2023-08-12T01:48:23;19.40;48.80
43991;DHT22;29654;50.784;20.604;2023-08-12T01:53:26;19.40;48.80
43991;DHT22;29654;50.784;20.604;2023-08-12T01:58:30;19.30;48.80
43991;DHT22;29654;50.784;20.604;2023-08-12T02:03:33;19.30;49.00
43991;DHT22;29654;50.784;20.604;2023-08-12T02:08:35;19.20;48.90
43991;DHT22;29654;50.784;20.604;2023-08-12T02:13:39;19.10;49.00
43991;DHT22;29654;50.784;20.604;2023-08-12T02:18:42;19.10;49.10
43991;DHT22;29654;50.784;20.604;2023-08-12T02:23:45;19.00;49.00
43991;DHT22;29654;50.784;20.604;2023-08-12T02:28:49;19.00;49.20
43991;DHT22;29654;50.784;20.604;2023-08-12T02:33:51;18.90;49.40
43991;DHT22;29654;50.784;20.604;2023-08-12T02:38:54;18.90;49.40
43991;DHT22;29654;50.784;20.604;2023-08-12T02:43:58;18.80;49.30
43991;DHT22;29654;50.784;20.604;2023-08-12T02:49:00;18.80;49.50
43991;DHT22;29654;50.784;20.604;2023-08-12T02:54:03;18.70;49.40
43991;DHT22;29654;50.784;20.604;2023-08-12T02:59:08;18.70;49.50
43991;DHT22;29654;50.784;20.604;2023-08-12T03:04:10;18.70;49.60
43991;DHT22;29654;50.784;20.604;2023-08-12T03:09:13;18.60;49.60
43991;DHT22;29654;50.784;20.604;2023-08-12T03:14:17;18.60;49.60
43991;DHT22;29654;50.784;20.604;2023-08-12T03:19:20;18.60;49.80
43991;DHT22;29654;50.784;20.604;2023-08-12T03:24:23;18.50;49.70
43991;DHT22;29654;50.784;20.604;2023-08-12T03:29:27;18.50;49.70
43991;DHT22;29654;50.784;20.604;2023-08-12T03:34:30;18.50;50.00
43991;DHT22;29654;50.784;20.604;2023-08-12T03:39:33;18.50;49.90
43991;DHT22;29654;50.784;20.604;2023-08-12T03:44:38;18.50;50.00
43991;DHT22;29654;50.784;20.604;2023-08-12T03:49:41;18.50;50.20
43991;DHT22;29654;50.784;20.604;2023-08-12T03:54:44;18.50;50.20
43991;DHT22;29654;50.784;20.604;2023-08-12T03:59:48;18.60;50.30
43991;DHT22;29654;50.784;20.604;2023-08-12T04:04:51;18.60;50.50
43991;DHT22;29654;50.784;20.604;2023-08-12T04:09:54;18.60;50.50
43991;DHT22;29654;50.784;20.604;2023-08-12T04:14:58;18.70;50.60
43991;DHT22;29654;50.784;20.604;2023-08-12T04:20:04;18.80;50.90
43991;DHT22;29654;50.784;20.604;2023-08-12T04:25:09;19.00;50.90
43991;DHT22;29654;50.784;20.604;2023-08-12T04:30:14;19.10;50.90
43991;DHT22;29654;50.784;20.604;2023-08-12T04:35:16;19.20;51.10
43991;DHT22;29654;50.784;20.604;2023-08-12T04:40:20;19.30;51.00
43991;DHT22;29654;50.784;20.604;2023-08-12T04:45:25;19.50;51.10
43991;DHT22;29654;50.784;20.604;2023-08-12T04:50:29;19.70;51.20
43991;DHT22;29654;50.784;20.604;2023-08-12T04:55:33;19.90;51.10
43991;DHT22;29654;50.784;20.604;2023-08-12T05:00:38;20.10;51.10
43991;DHT22;29654;50.784;20.604;2023-08-12T05:05:43;20.40;51.80
43991;DHT22;29654;50.784;20.604;2023-08-12T05:10:48;20.80;51.80
43991;DHT22;29654;50.784;20.604;2023-08-12T05:15:57;21.30;51.60
43991;DHT22;29654;50.784;20.604;2023-08-12T05:21:01;21.80;51.20
43991;DHT22;29654;50.784;20.604;2023-08-12T05:26:04;22.30;50.90
43991;DHT22;29654;50.784;20.604;2023-08-12T05:31:08;22.70;50.30
43991;DHT22;29654;50.784;20.604;2023-08-12T05:36:11;23.10;49.70
43991;DHT22;29654;50.784;20.604;2023-08-12T05:41:13;23.50;49.30
43991;DHT22;29654;50.784;20.604;2023-08-12T05:46:17;23.90;48.80
43991;DHT22;29654;50.784;20.604;2023-08-12T05:51:20;24.20;48.50
43991;DHT22;29654;50.784;20.604;2023-08-12T05:56:22;24.50;48.40
43991;DHT22;29654;50.784;20.604;2023-08-12T06:01:26;24.90;47.80
43991;DHT22;29654;50.784;20.604;2023-08-12T06:06:29;25.20;47.20
43991;DHT22;29654;50.784;20.604;2023-08-12T06:11:32;25.40;46.90
43991;DHT22;29654;50.784;20.604;2023-08-12T06:16:36;25.60;46.50
43991;DHT22;29654;50.784;20.604;2023-08-12T06:21:38;25.90;46.60
43991;DHT22;29654;50.784;20.604;2023-08-12T06:26:41;26.10;46.30
43991;DHT22;29654;50.784;20.604;2023-08-12T06:31:45;26.30;45.60
43991;DHT22;29654;50.784;20.604;2023-08-12T06:36:48;26.60;45.00
43991;DHT22;29654;50.784;20.604;2023-08-12T06:41:51;26.70;44.50
43991;DHT22;29654;50.784;20.604;2023-08-12T06:46:56;26.90;44.10
43991;DHT22;29654;50.784;20.604;2023-08-12T06:52:00;27.10;44.20
43991;DHT22;29654;50.784;20.604;2023-08-12T06:57:03;27.30;43.80
43991;DHT22;29654;50.784;20.604;2023-08-12T07:02:07;27.50;43.50
43991;DHT22;29654;50.784;20.604;2023-08-12T07:07:10;27.70;43.60
43991;DHT22;29654;50.784;20.604;2023-08-12T07:12:12;27.80;43.50
43991;DHT22;29654;50.784;20.604;2023-08-12T07:17:17;28.00;42.90
43991;DHT22;29654;50.784;20.604;2023-08-12T07:22:20;28.20;43.00
43991;DHT22;29654;50.784;20.604;2023-08-12T07:27:22;28.40;42.70
43991;DHT22;29654;50.784;20.604;2023-08-12T07:32:26;28.60;42.50
43991;DHT22;29654;50.784;20.604;2023-08-12T07:37:29;28.80;41.90
43991;DHT22;29654;50.784;20.604;2023-08-12T07:42:32;29.00;41.90
43991;DHT22;29654;50.784;20.604;2023-08-12T07:47:36;29.20;41.80
43991;DHT22;29654;50.784;20.604;2023-08-12T07:52:38;29.40;41.50
43991;DHT22;29654;50.784;20.604;2023-08-12T07:57:41;29.50;41.20
43991;DHT22;29654;50.784;20.604;2023-08-12T08:02:46;29.70;40.70
43991;DHT22;29654;50.784;20.604;2023-08-12T08:07:49;29.80;40.40
43991;DHT22;29654;50.784;20.604;2023-08-12T08:12:51;29.90;40.60
43991;DHT22;29654;50.784;20.604;2023-08-12T08:17:55;30.10;40.00
43991;DHT22;29654;50.784;20.604;2023-08-12T08:22:58;30.10;39.60
43991;DHT22;29654;50.784;20.604;2023-08-12T08:28:01;30.20;39.30
43991;DHT22;29654;50.784;20.604;2023-08-12T08:33:05;30.40;39.60
43991;DHT22;29654;50.784;20.604;2023-08-12T08:38:08;30.50;38.70
43991;DHT22;29654;50.784;20.604;2023-08-12T08:43:13;30.50;38.40
43991;DHT22;29654;50.784;20.604;2023-08-12T08:48:19;30.60;37.60
43991;DHT22;29654;50.784;20.604;2023-08-12T08:53:22;30.60;37.80
43991;DHT22;29654;50.784;20.604;2023-08-12T08:58:25;30.70;37.70
43991;DHT22;29654;50.784;20.604;2023-08-12T09:03:30;30.70;37.80
43991;DHT22;29654;50.784;20.604;2023-08-12T09:08:32;30.80;37.10
43991;DHT22;29654;50.784;20.604;2023-08-12T09:13:35;30.90;37.10
43991;DHT22;29654;50.784;20.604;2023-08-12T09:18:40;31.00;37.20
43991;DHT22;29654;50.784;20.604;2023-08-12T09:23:44;31.10;37.30
43991;DHT22;29654;50.784;20.604;2023-08-12T09:28:47;31.20;37.70
43991;DHT22;29654;50.784;20.604;2023-08-12T09:33:52;31.40;36.90
43991;DHT22;29654;50.784;20.604;2023-08-12T09:38:56;31.50;36.90
43991;DHT22;29654;50.784;20.604;2023-08-12T09:44:02;31.60;36.30
43991;DHT22;29654;50.784;20.604;2023-08-12T09:49:06;31.60;36.50
43991;DHT22;29654;50.784;20.604;2023-08-12T09:54:09;31.70;36.30
43991;DHT22;29654;50.784;20.604;2023-08-12T09:59:12;31.80;36.10
43991;DHT22;29654;50.784;20.604;2023-08-12T10:04:22;31.80;35.50
43991;DHT22;29654;50.784;20.604;2023-08-12T10:09:26;31.80;34.80
43991;DHT22;29654;50.784;20.604;2023-08-12T10:14:29;31.90;36.40
43991;DHT22;29654;50.784;20.604;2023-08-12T10:19:36;31.90;35.80
43991;DHT22;29654;50.784;20.604;2023-08-12T10:24:39;32.00;36.00
43991;DHT22;29654;50.784;20.604;2023-08-12T10:29:46;32.00;35.30
43991;DHT22;29654;50.784;20.604;2023-08-12T10:34:56;32.00;34.70
43991;DHT22;29654;50.784;20.604;2023-08-12T10:39:58;31.90;33.80
43991;DHT22;29654;50.784;20.604;2023-08-12T10:45:04;31.70;35.00
43991;DHT22;29654;50.784;20.604;2023-08-12T10:50:18;31.70;34.60
43991;DHT22;29654;50.784;20.604;2023-08-12T10:55:22;31.80;34.20
43991;DHT22;29654;50.784;20.604;2023-08-12T11:00:27;31.90;34.40
43991;DHT22;29654;50.784;20.604;2023-08-12T11:05:37;31.90;34.70
43991;DHT22;29654;50.784;20.604;2023-08-12T11:10:40;32.00;34.10
43991;DHT22;29654;50.784;20.604;2023-08-12T11:15:44;32.00;34.70
43991;DHT22;29654;50.784;20.604;2023-08-12T11:20:49;32.10;34.70
43991;DHT22;29654;50.784;20.604;2023-08-12T11:25:53;32.20;34.10
43991;DHT22;29654;50.784;20.604;2023-08-12T11:30:55;32.30;34.40
43991;DHT22;29654;50.784;20.604;2023-08-12T11:35:59;32.40;34.50
43991;DHT22;29654;50.784;20.604;2023-08-12T11:41:02;32.50;34.30
43991;DHT22;29654;50.784;20.604;2023-08-12T11:46:05;32.50;33.40
43991;DHT22;29654;50.784;20.604;2023-08-12T11:51:09;32.50;33.10
43991;DHT22;29654;50.784;20.604;2023-08-12T11:56:12;32.50;33.10
43991;DHT22;29654;50.784;20.604;2023-08-12T12:01:15;32.50;33.10
43991;DHT22;29654;50.784;20.604;2023-08-12T12:06:28;32.50;32.70
43991;DHT22;29654;50.784;20.604;2023-08-12T12:11:32;32.40;32.10
43991;DHT22;29654;50.784;20.604;2023-08-12T12:16:42;32.20;32.90
43991;DHT22;29654;50.784;20.604;2023-08-12T12:21:48;32.20;32.80
43991;DHT22;29654;50.784;20.604;2023-08-12T12:26:52;32.20;33.70
43991;DHT22;29654;50.784;20.604;2023-08-12T12:31:54;32.30;33.20
43991;DHT22;29654;50.784;20.604;2023-08-12T12:36:58;32.40;33.00
43991;DHT22;29654;50.784;20.604;2023-08-12T12:42:01;32.40;33.40
43991;DHT22;29654;50.784;20.604;2023-08-12T12:47:05;32.50;33.30
43991;DHT22;29654;50.784;20.604;2023-08-12T12:52:09;32.60;32.70
43991;DHT22;29654;50.784;20.604;2023-08-12T12:57:12;32.60;32.80
43991;DHT22;29654;50.784;20.604;2023-08-12T13:02:15;32.60;32.70
43991;DHT22;29654;50.784;20.604;2023-08-12T13:07:19;32.60;32.70
43991;DHT22;29654;50.784;20.604;2023-08-12T13:12:21;32.70;32.80
43991;DHT22;29654;50.784;20.604;2023-08-12T13:17:24;32.70;32.50
43991;DHT22;29654;50.784;20.604;2023-08-12T13:22:28;32.70;32.20
43991;DHT22;29654;50.784;20.604;2023-08-12T13:27:31;32.70;31.80
43991;DHT22;29654;50.784;20.604;2023-08-12T13:32:33;32.70;32.00
43991;DHT22;29654;50.784;20.604;2023-08-12T13:37:37;32.80;32.10
43991;DHT22;29654;50.784;20.604;2023-08-12T13:42:40;32.80;31.90
43991;DHT22;29654;50.784;20.604;2023-08-12T13:47:43;32.90;32.10
43991;DHT22;29654;50.784;20.604;2023-08-12T13:52:47;33.00;32.30
43991;DHT22;29654;50.784;20.604;2023-08-12T13:57:51;33.00;31.50
43991;DHT22;29654;50.784;20.604;2023-08-12T14:02:54;33.10;31.60
43991;DHT22;29654;50.784;20.604;2023-08-12T14:07:58;33.10;31.40
43991;DHT22;29654;50.784;20.604;2023-08-12T14:13:01;33.10;31.30
43991;DHT22;29654;50.784;20.604;2023-08-12T14:18:04;33.10;31.50
43991;DHT22;29654;50.784;20.604;2023-08-12T14:23:08;33.10;31.30
43991;DHT22;29654;50.784;20.604;2023-08-12T14:28:11;33.00;31.50
43991;DHT22;29654;50.784;20.604;2023-08-12T14:33:13;33.00;31.50
43991;DHT22;29654;50.784;20.604;2023-08-12T14:38:17;33.10;31.70
43991;DHT22;29654;50.784;20.604;2023-08-12T14:43:20;33.00;31.50
43991;DHT22;29654;50.784;20.604;2023-08-12T14:48:23;33.00;31.30
43991;DHT22;29654;50.784;20.604;2023-08-12T14:53:28;33.00;31.50
43991;DHT22;29654;50.784;20.604;2023-08-12T14:58:31;33.00;31.30
43991;DHT22;29654;50.784;20.604;2023-08-12T15:03:33;33.10;31.60
43991;DHT22;29654;50.784;20.604;2023-08-12T15:08:37;33.20;31.20
43991;DHT22;29654;50.784;20.604;2023-08-12T15:13:41;33.30;30.90
43991;DHT22;29654;50.784;20.604;2023-08-12T15:18:44;33.40;30.90
43991;DHT22;29654;50.784;20.604;2023-08-12T15:23:48;33.40;30.70
43991;DHT22;29654;50.784;20.604;2023-08-12T15:28:52;33.30;30.50
43991;DHT22;29654;50.784;20.604;2023-08-12T15:33:54;33.30;30.70
43991;DHT22;29654;50.784;20.604;2023-08-12T15:38:58;33.40;31.00
43991;DHT22;29654;50.784;20.604;2023-08-12T15:44:01;33.40;30.80
43991;DHT22;29654;50.784;20.604;2023-08-12T15:49:04;33.40;31.40
43991;DHT22;29654;50.784;20.604;2023-08-12T15:54:12;33.50;31.60
43991;DHT22;29654;50.784;20.604;2023-08-12T15:59:15;33.50;31.50
43991;DHT22;29654;50.784;20.604;2023-08-12T16:04:17;33.50;31.70
43991;DHT22;29654;50.784;20.604;2023-08-12T16:09:21;33.60;32.10
43991;DHT22;29654;50.784;20.604;2023-08-12T16:14:24;33.60;32.90
43991;DHT22;29654;50.784;20.604;2023-08-12T16:19:27;33.60;32.60
43991;DHT22;29654;50.784;20.604;2023-08-12T16:24:30;33.60;31.90
43991;DHT22;29654;50.784;20.604;2023-08-12T16:29:33;33.70;32.70
43991;DHT22;29654;50.784;20.604;2023-08-12T16:34:36;33.60;33.30
43991;DHT22;29654;50.784;20.604;2023-08-12T16:39:40;33.60;33.70
43991;DHT22;29654;50.784;20.604;2023-08-12T16:44:42;33.50;33.40
43991;DHT22;29654;50.784;20.604;2023-08-12T16:49:45;33.50;32.20
43991;DHT22;29654;50.784;20.604;2023-08-12T16:54:49;33.50;32.70
43991;DHT22;29654;50.784;20.604;2023-08-12T16:59:51;33.40;33.20
43991;DHT22;29654;50.784;20.604;2023-08-12T17:04:54;33.30;33.80
43991;DHT22;29654;50.784;20.604;2023-08-12T17:09:58;33.20;33.90
43991;DHT22;29654;50.784;20.604;2023-08-12T17:15:01;33.00;34.20
43991;DHT22;29654;50.784;20.604;2023-08-12T17:20:05;32.80;34.30
43991;DHT22;29654;50.784;20.604;2023-08-12T17:25:10;32.40;34.40
43991;DHT22;29654;50.784;20.604;2023-08-12T17:30:13;32.10;34.80
43991;DHT22;29654;50.784;20.604;2023-08-12T17:35:15;31.80;35.10
43991;DHT22;29654;50.784;20.604;2023-08-12T17:40:20;31.50;35.30
43991;DHT22;29654;50.784;20.604;2023-08-12T17:45:23;31.30;36.50
43991;DHT22;29654;50.784;20.604;2023-08-12T17:50:26;30.90;35.90
43991;DHT22;29654;50.784;20.604;2023-08-12T17:55:30;30.70;36.30
43991;DHT22;29654;50.784;20.604;2023-08-12T18:00:33;30.30;36.50
43991;DHT22;29654;50.784;20.604;2023-08-12T18:05:35;30.00;36.70
43991;DHT22;29654;50.784;20.604;2023-08-12T18:10:39;29.70;36.90
43991;DHT22;29654;50.784;20.604;2023-08-12T18:15:42;29.50;37.40
43991;DHT22;29654;50.784;20.604;2023-08-12T18:20:44;29.20;37.50
43991;DHT22;29654;50.784;20.604;2023-08-12T18:25:48;28.90;38.00
43991;DHT22;29654;50.784;20.604;2023-08-12T18:30:51;28.60;38.30
43991;DHT22;29654;50.784;20.604;2023-08-12T18:35:53;28.40;38.40
43991;DHT22;29654;50.784;20.604;2023-08-12T18:40:57;28.10;38.60
43991;DHT22;29654;50.784;20.604;2023-08-12T18:46:00;27.80;38.90
43991;DHT22;29654;50.784;20.604;2023-08-12T18:51:05;27.60;39.20
43991;DHT22;29654;50.784;20.604;2023-08-12T18:56:15;27.40;39.50
43991;DHT22;29654;50.784;20.604;2023-08-12T19:01:18;27.10;39.70
43991;DHT22;29654;50.784;20.604;2023-08-12T19:06:21;26.90;39.80
43991;DHT22;29654;50.784;20.604;2023-08-12T19:11:25;26.70;40.20
43991;DHT22;29654;50.784;20.604;2023-08-12T19:16:28;26.60;40.60
43991;DHT22;29654;50.784;20.604;2023-08-12T19:21:30;26.40;40.70
43991;DHT22;29654;50.784;20.604;2023-08-12T19:26:35;26.20;41.10
43991;DHT22;29654;50.784;20.604;2023-08-12T19:31:39;26.10;41.50
43991;DHT22;29654;50.784;20.604;2023-08-12T19:36:42;26.00;41.60
43991;DHT22;29654;50.784;20.604;2023-08-12T19:41:46;25.90;41.80
43991;DHT22;29654;50.784;20.604;2023-08-12T19:46:50;25.80;42.10
43991;DHT22;29654;50.784;20.604;2023-08-12T19:51:54;25.60;42.10
43991;DHT22;29654;50.784;20.604;2023-08-12T19:57:00;25.50;42.30
43991;DHT22;29654;50.784;20.604;2023-08-12T20:02:03;25.40;42.70
43991;DHT22;29654;50.784;20.604;2023-08-12T20:07:07;25.30;42.70
43991;DHT22;29654;50.784;20.604;2023-08-12T20:12:14;25.20;42.90
43991;DHT22;29654;50.784;20.604;2023-08-12T20:17:16;25.10;43.30
43991;DHT22;29654;50.784;20.604;2023-08-12T20:22:23;24.90;43.20
43991;DHT22;29654;50.784;20.604;2023-08-12T20:27:28;24.90;43.50
43991;DHT22;29654;50.784;20.604;2023-08-12T20:32:31;24.80;43.80
43991;DHT22;29654;50.784;20.604;2023-08-12T20:37:34;24.70;43.80
43991;DHT22;29654;50.784;20.604;2023-08-12T20:42:38;24.60;44.00
43991;DHT22;29654;50.784;20.604;2023-08-12T20:47:41;24.50;44.30
43991;DHT22;29654;50.784;20.604;2023-08-12T20:52:44;24.40;44.40
43991;DHT22;29654;50.784;20.604;2023-08-12T20:57:49;24.30;44.40
43991;DHT22;29654;50.784;20.604;2023-08-12T21:02:51;24.30;44.80
43991;DHT22;29654;50.784;20.604;2023-08-12T21:07:54;24.20;44.80
43991;DHT22;29654;50.784;20.604;2023-08-12T21:12:58;24.10;44.80
43991;DHT22;29654;50.784;20.604;2023-08-12T21:18:00;24.00;45.20
43991;DHT22;29654;50.784;20.604;2023-08-12T21:23:05;23.90;45.20
43991;DHT22;29654;50.784;20.604;2023-08-12T21:28:09;23.90;45.30
43991;DHT22;29654;50.784;20.604;2023-08-12T21:33:11;23.80;45.50
43991;DHT22;29654;50.784;20.604;2023-08-12T21:38:14;23.70;45.50
43991;DHT22;29654;50.784;20.604;2023-08-12T21:43:18;23.70;45.60
43991;DHT22;29654;50.784;20.604;2023-08-12T21:48:21;23.60;45.80
43991;DHT22;29654;50.784;20.604;2023-08-12T21:53:23;23.50;45.90
43991;DHT22;29654;50.784;20.604;2023-08-12T21:58:27;23.40;46.10
43991;DHT22;29654;50.784;20.604;2023-08-12T22:03:30;23.40;46.50
43991;DHT22;29654;50.784;20.604;2023-08-12T22:08:32;23.30;46.30
43991;DHT22;29654;50.784;20.604;2023-08-12T22:13:36;23.20;46.50
43991;DHT22;29654;50.784;20.604;2023-08-12T22:18:39;23.30;46.70
43991;DHT22;29654;50.784;20.604;2023-08-12T22:23:42;23.10;46.50
43991;DHT22;29654;50.784;20.604;2023-08-12T22:28:47;23.00;46.60
43991;DHT22;29654;50.784;20.604;2023-08-12T22:33:49;23.00;47.00
43991;DHT22;29654;50.784;20.604;2023-08-12T22:38:52;22.90;47.00
43991;DHT22;29654;50.784;20.604;2023-08-12T22:43:56;22.80;47.00
43991;DHT22;29654;50.784;20.604;2023-08-12T22:48:58;22.80;47.30
43991;DHT22;29654;50.784;20.604;2023-08-12T22:54:01;22.70;47.20
43991;DHT22;29654;50.784;20.604;2023-08-12T22:59:06;22.70;47.20
43991;DHT22;29654;50.784;20.604;2023-08-12T23:04:09;22.60;47.50
43991;DHT22;29654;50.784;20.604;2023-08-12T23:09:11;22.50;47.50
43991;DHT22;29654;50.784;20.604;2023-08-12T23:14:15;22.50;47.70
43991;DHT22;29654;50.784;20.604;2023-08-12T23:19:19;22.40;47.90
43991;DHT22;29654;50.784;20.604;2023-08-12T23:24:21;22.40;47.80
43991;DHT22;29654;50.784;20.604;2023-08-12T23:29:25;22.30;47.80
43991;DHT22;29654;50.784;20.604;2023-08-12T23:34:28;22.30;48.10
43991;DHT22;29654;50.784;20.604;2023-08-12T23:39:30;22.30;47.90
43991;DHT22;29654;50.784;20.604;2023-08-12T23:44:34;22.20;47.90
43991;DHT22;29654;50.784;20.604;2023-08-12T23:49:37;22.10;48.10
43991;DHT22;29654;50.784;20.604;2023-08-12T23:54:40;22.10;48.00
43991;DHT22;29654;50.784;20.604;2023-08-12T23:59:43;22.00;48.00
